createdAt,value
2022-11-05T00:01:58.009Z,3.30
2022-11-05T00:04:43.229Z,3.13
2022-11-05T00:07:41.035Z,3.20
2022-11-05T00:10:31.756Z,3.15
2022-11-05T00:13:18.550Z,3.22
2022-11-05T00:16:04.403Z,2.97
2022-11-05T00:18:31.422Z,3.10
2022-11-05T00:20:58.327Z,3.17
2022-11-05T00:23:44.001Z,3.40
2022-11-05T00:26:12.458Z,3.22
2022-11-05T00:28:44.070Z,3.20
2022-11-05T00:31:14.767Z,3.08
2022-11-05T00:33:43.253Z,2.85
2022-11-05T00:36:11.157Z,3.10
2022-11-05T00:38:37.969Z,3.25
2022-11-05T00:41:04.912Z,3.10
2022-11-05T00:43:50.175Z,3.17
2022-11-05T00:46:16.986Z,3.00
2022-11-05T00:49:02.559Z,2.90
2022-11-05T00:51:29.356Z,2.90
2022-11-05T00:53:56.252Z,2.92
2022-11-05T00:56:23.077Z,3.05
2022-11-05T00:58:49.949Z,2.90
2022-11-05T01:01:16.943Z,2.95
2022-11-05T01:03:47.483Z,2.90
2022-11-05T01:06:18.197Z,3.28
2022-11-05T01:08:45.772Z,3.05
2022-11-05T01:11:36.936Z,2.90
2022-11-05T01:14:12.410Z,2.80
2022-11-05T01:16:40.140Z,3.10
2022-11-05T01:19:09.508Z,2.80
2022-11-05T01:21:36.780Z,3.20
2022-11-05T01:24:04.382Z,2.85
2022-11-05T01:26:31.288Z,2.90
2022-11-05T01:29:02.068Z,2.90
2022-11-05T01:31:29.171Z,2.72
2022-11-05T01:33:55.963Z,2.72
2022-11-05T01:36:22.875Z,2.70
2022-11-05T01:38:49.730Z,2.70
2022-11-05T01:41:16.546Z,2.90
2022-11-05T01:43:55.202Z,2.60
2022-11-05T01:46:25.901Z,2.85
2022-11-05T01:48:55.245Z,2.80
2022-11-05T01:51:27.177Z,2.60
2022-11-05T01:53:58.808Z,2.60
2022-11-05T01:56:47.470Z,2.53
2022-11-05T01:59:26.736Z,2.72
2022-11-05T02:01:54.247Z,2.85
2022-11-05T02:04:32.092Z,2.63
2022-11-05T02:06:59.563Z,2.60
2022-11-05T02:09:49.400Z,2.47
2022-11-05T02:12:16.378Z,2.60
2022-11-05T02:14:43.174Z,2.58
2022-11-05T02:17:27.983Z,2.70
2022-11-05T02:20:10.337Z,2.65
2022-11-05T02:22:52.218Z,2.47
2022-11-05T02:25:27.786Z,2.60
2022-11-05T02:28:16.160Z,2.58
2022-11-05T02:30:52.115Z,2.75
2022-11-05T02:33:56.696Z,2.40
2022-11-05T02:37:28.126Z,2.38
2022-11-05T02:40:06.656Z,2.40
2022-11-05T02:42:33.426Z,2.50
2022-11-05T02:45:23.439Z,2.30
2022-11-05T02:48:07.965Z,2.17
2022-11-05T02:50:45.625Z,2.67
2022-11-05T02:53:20.747Z,2.47
2022-11-05T02:55:54.067Z,2.47
2022-11-05T02:58:21.783Z,2.50
2022-11-05T03:00:52.656Z,2.50
2022-11-05T03:03:41.046Z,2.17
2022-11-05T03:06:41.811Z,2.35
2022-11-05T03:09:33.381Z,2.38
2022-11-05T03:12:03.505Z,2.40
2022-11-05T03:14:47.689Z,2.28
2022-11-05T03:17:35.824Z,2.20
2022-11-05T03:20:36.070Z,2.60
2022-11-05T03:23:17.881Z,2.28
2022-11-05T03:25:59.515Z,2.40
2022-11-05T03:28:31.299Z,2.35
2022-11-05T03:30:58.615Z,2.28
2022-11-05T03:33:28.946Z,2.20
2022-11-05T03:35:59.988Z,2.20
2022-11-05T03:38:34.761Z,2.10
2022-11-05T03:41:05.293Z,2.28
2022-11-05T03:43:35.487Z,2.25
2022-11-05T03:46:09.532Z,2.30
2022-11-05T03:48:40.481Z,2.33
2022-11-05T03:51:19.601Z,2.53
2022-11-05T03:53:54.371Z,2.10
2022-11-05T03:56:28.958Z,2.38
2022-11-05T03:58:59.135Z,2.40
2022-11-05T04:01:26.919Z,2.35
2022-11-05T04:03:53.899Z,2.20
2022-11-05T04:06:39.410Z,2.20
2022-11-05T04:09:24.708Z,2.20
2022-11-05T04:12:09.885Z,2.10
2022-11-05T04:14:36.671Z,2.10
2022-11-05T04:17:06.451Z,2.20
2022-11-05T04:20:02.122Z,2.20
2022-11-05T04:22:49.427Z,2.20
2022-11-05T04:25:17.359Z,2.05
2022-11-05T04:27:45.261Z,2.20
2022-11-05T04:30:19.738Z,2.17
2022-11-05T04:32:59.179Z,2.30
2022-11-05T04:35:34.168Z,2.38
2022-11-05T04:38:01.972Z,2.50
2022-11-05T04:40:29.394Z,2.10
2022-11-05T04:42:56.867Z,2.17
2022-11-05T04:45:24.784Z,2.38
2022-11-05T04:47:51.737Z,2.00
2022-11-05T04:50:18.717Z,2.15
2022-11-05T04:52:45.615Z,2.00
2022-11-05T04:55:12.494Z,2.08
2022-11-05T04:57:39.454Z,2.13
2022-11-05T05:00:07.659Z,2.00
2022-11-05T05:02:35.489Z,2.10
2022-11-05T05:05:02.332Z,2.10
2022-11-05T05:07:29.320Z,2.10
2022-11-05T05:09:56.400Z,2.25
2022-11-05T05:12:23.332Z,2.10
2022-11-05T05:14:50.306Z,2.00
2022-11-05T05:17:17.212Z,2.10
2022-11-05T05:20:02.836Z,2.40
2022-11-05T05:22:29.700Z,2.20
2022-11-05T05:24:56.828Z,2.05
2022-11-05T05:27:25.949Z,2.00
2022-11-05T05:29:52.782Z,2.10
2022-11-05T05:32:19.571Z,2.13
2022-11-05T05:34:46.449Z,2.10
2022-11-05T05:37:13.282Z,2.22
2022-11-05T05:39:40.085Z,2.30
2022-11-05T05:42:06.967Z,2.30
2022-11-05T05:44:33.745Z,2.28
2022-11-05T05:47:00.553Z,2.05
2022-11-05T05:49:27.328Z,2.08
2022-11-05T05:51:54.228Z,2.30
2022-11-05T05:54:26.289Z,2.10
2022-11-05T05:56:56.086Z,2.30
2022-11-05T05:59:22.966Z,2.10
2022-11-05T06:01:50.197Z,2.20
2022-11-05T06:04:17.125Z,2.28
2022-11-05T06:06:46.756Z,2.22
2022-11-05T06:09:14.311Z,2.20
2022-11-05T06:11:41.488Z,2.38
2022-11-05T06:14:12.553Z,2.20
2022-11-05T06:16:40.257Z,2.30
2022-11-05T06:19:07.961Z,2.42
2022-11-05T06:21:35.083Z,2.30
2022-11-05T06:24:03.100Z,2.30
2022-11-05T06:26:30.108Z,2.30
2022-11-05T06:28:57.229Z,2.08
2022-11-05T06:31:24.281Z,2.22
2022-11-05T06:33:51.213Z,2.40
2022-11-05T06:36:19.078Z,2.30
2022-11-05T06:38:46.302Z,2.22
2022-11-05T06:41:13.170Z,2.28
2022-11-05T06:43:40.085Z,2.50
2022-11-05T06:46:07.459Z,2.28
2022-11-05T06:48:34.872Z,2.30
2022-11-05T06:51:02.198Z,2.42
2022-11-05T06:53:30.080Z,2.28
2022-11-05T06:55:56.944Z,2.50
2022-11-05T06:58:23.823Z,2.50
2022-11-05T07:00:50.747Z,2.45
2022-11-05T07:03:17.641Z,2.45
2022-11-05T07:05:47.000Z,2.70
2022-11-05T07:08:14.155Z,2.40
2022-11-05T07:10:41.079Z,2.25
2022-11-05T07:13:08.822Z,2.40
2022-11-05T07:15:36.681Z,2.42
2022-11-05T07:18:04.203Z,2.70
2022-11-05T07:20:34.282Z,2.45
2022-11-05T07:23:06.198Z,2.50
2022-11-05T07:25:33.962Z,2.60
2022-11-05T07:28:00.982Z,2.70
2022-11-05T07:30:28.232Z,2.40
2022-11-05T07:32:55.317Z,3.50
2022-11-05T07:35:22.328Z,4.45
2022-11-05T07:37:50.533Z,4.57
2022-11-05T07:40:19.314Z,4.80
2022-11-05T07:42:48.437Z,5.07
2022-11-05T07:45:15.367Z,5.15
2022-11-05T07:47:53.910Z,4.95
2022-11-05T07:50:22.645Z,5.38
2022-11-05T07:52:49.753Z,5.72
2022-11-05T07:55:18.179Z,5.18
2022-11-05T07:57:46.983Z,5.40
2022-11-05T08:00:16.563Z,5.75
2022-11-05T08:02:44.120Z,6.05
2022-11-05T08:05:11.243Z,5.50
2022-11-05T08:07:38.111Z,5.43
2022-11-05T08:10:05.347Z,5.70
2022-11-05T08:12:32.616Z,5.40
2022-11-05T08:14:59.524Z,5.95
2022-11-05T08:17:26.420Z,5.25
2022-11-05T08:19:53.565Z,5.00
2022-11-05T08:22:20.397Z,4.32
2022-11-05T08:24:47.372Z,4.93
2022-11-05T08:27:14.264Z,4.10
2022-11-05T08:29:41.135Z,4.00
2022-11-05T08:32:07.970Z,4.22
2022-11-05T08:34:34.831Z,4.20
2022-11-05T08:37:02.155Z,4.10
2022-11-05T08:39:29.155Z,3.58
2022-11-05T08:41:55.961Z,4.28
2022-11-05T08:44:22.805Z,3.95
2022-11-05T08:46:49.849Z,3.97
2022-11-05T08:49:16.972Z,4.00
2022-11-05T08:51:44.621Z,3.60
2022-11-05T08:54:11.477Z,3.95
2022-11-05T08:56:38.390Z,3.75
2022-11-05T08:59:05.471Z,3.72
2022-11-05T09:01:33.836Z,3.95
2022-11-05T09:04:00.842Z,3.47
2022-11-05T09:06:27.941Z,3.80
2022-11-05T09:08:55.035Z,3.95
2022-11-05T09:11:22.030Z,3.42
2022-11-05T09:13:48.889Z,3.58
2022-11-05T09:16:24.103Z,3.50
2022-11-05T09:18:51.508Z,3.50
2022-11-05T09:21:19.400Z,3.60
2022-11-05T09:23:46.845Z,3.88
2022-11-05T09:26:14.239Z,3.58
2022-11-05T09:28:43.246Z,3.17
2022-11-05T09:31:11.252Z,3.45
2022-11-05T09:33:39.736Z,3.35
2022-11-05T09:36:07.068Z,3.50
2022-11-05T09:38:37.726Z,3.67
2022-11-05T09:41:25.873Z,3.63
2022-11-05T09:44:03.410Z,3.70
2022-11-05T09:46:40.910Z,3.00
2022-11-05T09:49:24.886Z,3.20
2022-11-05T09:51:56.225Z,3.33
2022-11-05T09:54:26.279Z,3.00
2022-11-05T09:56:53.509Z,3.40
2022-11-05T09:59:24.797Z,3.25
2022-11-05T10:01:56.629Z,3.33
2022-11-05T10:04:28.467Z,3.50
2022-11-05T10:07:00.270Z,3.50
2022-11-05T10:09:40.201Z,3.05
2022-11-05T10:12:22.083Z,3.03
2022-11-05T10:14:56.090Z,2.97
2022-11-05T10:17:25.708Z,3.13
2022-11-05T10:20:20.789Z,3.30
2022-11-05T10:22:50.008Z,3.10
2022-11-05T10:25:22.431Z,3.45
2022-11-05T10:27:54.479Z,2.90
2022-11-05T10:30:21.960Z,3.13
2022-11-05T10:32:49.664Z,3.00
2022-11-05T10:35:19.034Z,3.25
2022-11-05T10:37:50.062Z,3.17
2022-11-05T10:40:36.129Z,3.10
2022-11-05T10:43:24.074Z,3.10
2022-11-05T10:45:55.628Z,3.22
2022-11-05T10:48:25.481Z,3.30
2022-11-05T10:50:52.574Z,2.92
2022-11-05T10:53:39.696Z,3.22
2022-11-05T10:56:36.884Z,3.10
2022-11-05T10:59:11.905Z,3.20
2022-11-05T11:01:39.429Z,3.15
2022-11-05T11:04:14.186Z,2.80
2022-11-05T11:06:47.962Z,3.15
2022-11-05T11:09:26.871Z,3.00
2022-11-05T11:12:04.872Z,3.05
2022-11-05T11:14:32.210Z,3.40
2022-11-05T11:17:26.770Z,3.20
2022-11-05T11:20:20.089Z,2.80
2022-11-05T11:23:14.848Z,2.92
2022-11-05T11:25:58.656Z,3.45
2022-11-05T11:28:35.209Z,2.90
2022-11-05T11:31:07.361Z,2.78
2022-11-05T11:33:35.199Z,3.10
2022-11-05T11:36:02.218Z,3.10
2022-11-05T11:38:31.035Z,2.90
2022-11-05T11:41:24.968Z,2.83
2022-11-05T11:43:56.151Z,2.80
2022-11-05T11:46:23.133Z,2.80
2022-11-05T11:48:50.370Z,3.00
2022-11-05T11:51:49.518Z,2.83
2022-11-05T11:54:23.126Z,2.95
2022-11-05T11:56:52.684Z,2.70
2022-11-05T11:59:54.037Z,2.92
2022-11-05T12:02:32.411Z,3.00
2022-11-05T12:05:18.241Z,2.90
2022-11-05T12:07:48.601Z,2.72
2022-11-05T12:10:40.131Z,3.10
2022-11-05T12:13:19.026Z,3.00
2022-11-05T12:16:12.066Z,3.03
2022-11-05T12:18:57.404Z,2.92
2022-11-05T12:21:52.904Z,2.78
2022-11-05T12:24:35.307Z,2.90
2022-11-05T12:27:23.245Z,3.17
2022-11-05T12:29:59.147Z,2.95
2022-11-05T12:32:44.656Z,2.97
2022-11-05T12:35:32.756Z,3.03
2022-11-05T12:38:25.487Z,3.03
2022-11-05T12:41:01.140Z,2.90
2022-11-05T12:44:05.424Z,3.13
2022-11-05T12:46:45.702Z,3.10
2022-11-05T12:49:36.661Z,2.90
2022-11-05T12:52:19.115Z,2.70
2022-11-05T12:54:58.474Z,2.97
2022-11-05T12:57:26.937Z,3.15
2022-11-05T12:59:55.190Z,3.00
2022-11-05T13:03:02.112Z,2.88
2022-11-05T13:05:42.027Z,3.00
2022-11-05T13:08:17.219Z,2.72
2022-11-05T13:10:50.843Z,3.08
2022-11-05T13:13:26.549Z,2.80
2022-11-05T13:16:03.692Z,2.78
2022-11-05T13:18:55.180Z,3.08
2022-11-05T13:21:24.362Z,3.20
2022-11-05T13:24:04.803Z,3.17
2022-11-05T13:26:54.162Z,3.03
2022-11-05T13:29:29.012Z,2.80
2022-11-05T13:32:01.616Z,3.10
2022-11-05T13:34:32.268Z,3.10
2022-11-05T13:37:24.582Z,2.90
2022-11-05T13:39:57.410Z,2.78
2022-11-05T13:43:11.886Z,3.20
2022-11-05T13:45:48.506Z,3.20
2022-11-05T13:48:38.953Z,3.13
2022-11-05T13:51:43.577Z,2.80
2022-11-05T13:54:49.126Z,3.13
2022-11-05T13:57:24.970Z,2.90
2022-11-05T14:00:27.372Z,2.92
2022-11-05T14:03:03.852Z,2.65
2022-11-05T14:05:37.184Z,2.40
2022-11-05T14:08:18.805Z,2.45
2022-11-05T14:10:58.232Z,2.33
2022-11-05T14:14:00.121Z,2.60
2022-11-05T14:16:50.038Z,2.53
2022-11-05T14:19:19.978Z,3.00
2022-11-05T14:21:53.409Z,3.22
2022-11-05T14:24:23.245Z,2.90
2022-11-05T14:27:02.263Z,2.72
2022-11-05T14:29:39.556Z,2.80
2022-11-05T14:32:21.292Z,2.90
2022-11-05T14:35:01.968Z,3.38
2022-11-05T14:37:50.569Z,3.58
2022-11-05T14:40:36.967Z,3.90
2022-11-05T14:43:07.515Z,3.38
2022-11-05T14:45:40.538Z,3.47
2022-11-05T14:48:42.156Z,4.10
2022-11-05T14:51:28.801Z,4.20
2022-11-05T14:54:04.062Z,4.40
2022-11-05T14:56:54.882Z,4.20
2022-11-05T14:59:28.164Z,3.83
2022-11-05T15:02:05.199Z,3.50
2022-11-05T15:04:33.709Z,3.28
2022-11-05T15:07:03.526Z,3.40
2022-11-05T15:09:49.698Z,2.70
2022-11-05T15:12:33.277Z,3.08
2022-11-05T15:15:28.287Z,3.00
2022-11-05T15:17:58.369Z,2.60
2022-11-05T15:20:53.106Z,2.83
2022-11-05T15:23:29.349Z,2.70
2022-11-05T15:26:08.370Z,3.00
2022-11-05T15:28:40.558Z,2.50
2022-11-05T15:31:13.611Z,2.63
2022-11-05T15:33:46.761Z,2.50
2022-11-05T15:36:28.143Z,2.55
2022-11-05T15:39:23.317Z,2.60
2022-11-05T15:41:43.282Z,2.50
2022-11-05T15:44:29.770Z,2.72
2022-11-05T15:47:20.948Z,2.28
2022-11-05T15:50:01.259Z,2.15
2022-11-05T15:52:36.621Z,2.35
2022-11-05T15:55:12.828Z,2.30
2022-11-05T15:57:50.998Z,3.05
2022-11-05T16:00:24.546Z,29.15
2022-11-05T16:03:00.531Z,27.50
2022-11-05T16:05:29.578Z,32.97
2022-11-05T16:07:59.662Z,28.00
2022-11-05T16:10:34.785Z,33.30
2022-11-05T16:13:41.136Z,42.42
2022-11-05T16:16:13.858Z,36.55
2022-11-05T16:18:41.808Z,36.10
2022-11-05T16:21:10.030Z,35.67
2022-11-05T16:23:44.712Z,34.00
2022-11-05T16:27:01.343Z,31.73
2022-11-05T16:29:22.812Z,30.73
2022-11-05T16:31:51.281Z,30.90
2022-11-05T16:34:34.134Z,29.90
2022-11-05T16:37:01.133Z,28.38
2022-11-05T16:39:28.066Z,27.13
2022-11-05T16:41:54.920Z,27.33
2022-11-05T16:44:22.017Z,26.83
2022-11-05T16:46:49.982Z,27.27
2022-11-05T16:49:17.442Z,25.52
2022-11-05T16:51:44.769Z,24.58
2022-11-05T16:54:11.646Z,22.80
2022-11-05T16:56:39.970Z,22.80
2022-11-05T16:59:08.962Z,21.90
2022-11-05T17:01:37.565Z,21.60
2022-11-05T17:04:04.475Z,21.60
2022-11-05T17:06:31.268Z,20.77
2022-11-05T17:08:58.125Z,21.10
2022-11-05T17:11:24.997Z,19.63
2022-11-05T17:13:51.803Z,19.48
2022-11-05T17:16:18.789Z,16.50
2022-11-05T17:18:45.645Z,18.08
2022-11-05T17:21:14.119Z,17.45
2022-11-05T17:23:40.948Z,17.02
2022-11-05T17:26:12.489Z,16.92
2022-11-05T17:28:40.514Z,16.45
2022-11-05T17:31:09.473Z,15.52
2022-11-05T17:33:36.430Z,15.38
2022-11-05T17:36:11.561Z,14.77
2022-11-05T17:38:39.317Z,15.48
2022-11-05T17:41:14.143Z,14.95
2022-11-05T17:43:41.441Z,14.75
2022-11-05T17:46:10.074Z,14.52
2022-11-05T17:48:37.794Z,14.00
2022-11-05T17:51:07.891Z,13.93
2022-11-05T17:53:34.704Z,13.10
2022-11-05T17:56:01.736Z,13.40
2022-11-05T17:58:28.594Z,13.15
2022-11-05T18:00:55.436Z,12.70
2022-11-05T18:03:22.226Z,12.45
2022-11-05T18:05:49.132Z,12.50
2022-11-05T18:08:16.011Z,11.48
2022-11-05T18:10:42.878Z,11.27
2022-11-05T18:13:11.824Z,11.27
2022-11-05T18:18:08.359Z,10.30
2022-11-05T18:20:35.259Z,10.73
2022-11-05T18:23:02.342Z,10.60
2022-11-05T18:25:29.513Z,9.95
2022-11-05T18:27:56.359Z,10.65
2022-11-05T18:30:23.172Z,10.80
2022-11-05T18:32:51.053Z,10.20
2022-11-05T18:35:17.991Z,9.88
2022-11-05T18:37:45.006Z,9.65
2022-11-05T18:40:12.440Z,8.35
2022-11-05T18:42:39.576Z,9.40
2022-11-05T18:45:07.535Z,8.60
2022-11-05T18:47:34.810Z,8.93
2022-11-05T18:50:02.178Z,8.75
2022-11-05T18:52:31.551Z,7.60
2022-11-05T18:54:59.114Z,7.47
2022-11-05T18:57:26.626Z,7.93
2022-11-05T18:59:53.447Z,7.78
2022-11-05T19:02:20.429Z,7.45
2022-11-05T19:05:13.831Z,7.78
2022-11-05T19:07:38.807Z,7.22
2022-11-05T19:10:06.464Z,7.32
2022-11-05T19:12:33.323Z,7.35
2022-11-05T19:15:02.620Z,7.05
2022-11-05T19:17:31.842Z,6.68
2022-11-05T19:19:58.744Z,7.05
2022-11-05T19:22:25.993Z,6.75
2022-11-05T19:24:52.921Z,6.47
2022-11-05T19:27:20.007Z,6.03
2022-11-05T19:29:47.493Z,7.00
2022-11-05T19:32:14.599Z,6.35
2022-11-05T19:34:41.535Z,6.68
2022-11-05T19:37:08.442Z,6.60
2022-11-05T19:39:35.754Z,6.32
2022-11-05T19:42:03.684Z,6.47
2022-11-05T19:44:31.066Z,6.68
2022-11-05T19:46:57.964Z,6.25
2022-11-05T19:49:24.823Z,6.28
2022-11-05T19:51:51.854Z,5.25
2022-11-05T19:54:18.752Z,6.00
2022-11-05T19:56:45.821Z,5.68
2022-11-05T19:59:13.153Z,5.72
2022-11-05T20:01:40.146Z,5.82
2022-11-05T20:04:07.151Z,5.70
2022-11-05T20:06:37.995Z,5.38
2022-11-05T20:09:21.652Z,5.50
2022-11-05T20:11:50.128Z,5.03
2022-11-05T20:14:17.145Z,5.45
2022-11-05T20:16:45.957Z,5.05
2022-11-05T20:19:18.628Z,4.90
2022-11-05T20:21:46.059Z,5.28
2022-11-05T20:24:22.350Z,5.10
2022-11-05T20:26:50.973Z,4.70
2022-11-05T20:29:17.899Z,5.07
2022-11-05T20:31:44.809Z,5.20
2022-11-05T20:34:11.707Z,5.13
2022-11-05T20:36:39.413Z,5.20
2022-11-05T20:39:06.284Z,5.00
2022-11-05T20:41:33.230Z,4.85
2022-11-05T20:44:00.247Z,4.72
2022-11-05T20:46:27.063Z,4.88
2022-11-05T20:48:54.263Z,4.75
2022-11-05T20:51:22.488Z,5.30
2022-11-05T20:53:49.484Z,4.70
2022-11-05T20:56:22.683Z,4.50
2022-11-05T20:58:50.171Z,4.50
2022-11-05T21:01:17.513Z,4.63
2022-11-05T21:03:45.234Z,4.70
2022-11-05T21:06:13.230Z,4.50
2022-11-05T21:08:40.298Z,4.45
2022-11-05T21:11:07.521Z,4.70
2022-11-05T21:13:34.730Z,4.30
2022-11-05T21:16:02.527Z,4.70
2022-11-05T21:18:31.529Z,4.63
2022-11-05T21:21:00.430Z,4.63
2022-11-05T21:23:28.692Z,4.45
2022-11-05T21:25:55.845Z,4.38
2022-11-05T21:28:22.851Z,4.40
2022-11-05T21:30:49.734Z,4.30
2022-11-05T21:33:18.462Z,4.60
2022-11-05T21:35:47.447Z,4.68
2022-11-05T21:38:16.243Z,4.65
2022-11-05T21:40:43.823Z,4.30
2022-11-05T21:43:10.813Z,4.40
2022-11-05T21:45:42.452Z,4.10
2022-11-05T21:48:09.798Z,4.30
2022-11-05T21:50:58.627Z,4.40
2022-11-05T21:53:44.034Z,4.25
2022-11-05T21:56:37.815Z,4.18
2022-11-05T21:59:23.593Z,4.07
2022-11-05T22:01:50.731Z,4.15
2022-11-05T22:04:17.686Z,4.10
2022-11-05T22:06:44.507Z,4.00
2022-11-05T22:09:11.372Z,3.85
2022-11-05T22:11:38.446Z,3.97
2022-11-05T22:14:05.241Z,4.30
2022-11-05T22:16:32.131Z,3.75
2022-11-05T22:18:59.522Z,3.88
2022-11-05T22:21:26.443Z,3.83
2022-11-05T22:23:53.640Z,3.80
2022-11-05T22:26:20.670Z,3.80
2022-11-05T22:28:47.492Z,4.00
2022-11-05T22:31:15.464Z,3.80
2022-11-05T22:33:42.943Z,3.85
2022-11-05T22:36:10.564Z,3.70
2022-11-05T22:38:38.075Z,3.88
2022-11-05T22:41:13.377Z,3.70
2022-11-05T22:43:40.501Z,3.83
2022-11-05T22:46:09.306Z,3.92
2022-11-05T22:48:37.796Z,3.70
2022-11-05T22:51:06.648Z,3.65
2022-11-05T22:53:34.610Z,3.78
2022-11-05T22:56:06.134Z,3.60
2022-11-05T22:58:33.523Z,3.58
2022-11-05T23:01:01.043Z,3.75
2022-11-05T23:03:29.920Z,3.55
2022-11-05T23:06:38.441Z,3.70
2022-11-05T23:09:32.896Z,3.70
2022-11-05T23:12:00.546Z,3.50
2022-11-05T23:14:28.724Z,3.55
2022-11-05T23:17:14.064Z,3.65
2022-11-05T23:19:59.998Z,3.70
2022-11-05T23:22:47.531Z,3.70
2022-11-05T23:25:20.404Z,3.70
2022-11-05T23:27:49.552Z,3.40
2022-11-05T23:30:22.332Z,3.35
2022-11-05T23:32:49.783Z,3.60
2022-11-05T23:35:17.082Z,3.63
2022-11-05T23:38:02.278Z,3.30
2022-11-05T23:40:30.796Z,3.47
2022-11-05T23:43:16.068Z,3.03
2022-11-05T23:45:59.160Z,3.30
2022-11-05T23:48:34.818Z,3.22
2022-11-05T23:51:12.268Z,3.08
2022-11-05T23:53:40.842Z,3.25
2022-11-05T23:56:11.211Z,3.22
2022-11-05T23:58:38.953Z,3.33
